createdAt,value
2023-05-05T00:02:03.394Z,14.19
2023-05-05T00:04:29.871Z,14.16
2023-05-05T00:06:56.214Z,14.12
2023-05-05T00:09:22.832Z,14.04
2023-05-05T00:11:49.137Z,14.11
2023-05-05T00:14:15.514Z,14.09
2023-05-05T00:16:42.281Z,14.06
2023-05-05T00:19:09.097Z,14.05
2023-05-05T00:21:35.606Z,14.00
2023-05-05T00:24:01.984Z,14.00
2023-05-05T00:26:28.343Z,13.99
2023-05-05T00:28:54.692Z,13.98
2023-05-05T00:31:21.143Z,13.96
2023-05-05T00:33:47.509Z,13.92
2023-05-05T00:36:14.714Z,13.87
2023-05-05T00:38:41.126Z,13.89
2023-05-05T00:41:07.522Z,13.91
2023-05-05T00:43:33.937Z,13.86
2023-05-05T00:46:03.901Z,13.90
2023-05-05T00:48:30.576Z,13.90
2023-05-05T00:50:57.875Z,13.90
2023-05-05T00:53:26.542Z,13.81
2023-05-05T00:55:53.239Z,13.79
2023-05-05T00:58:19.843Z,13.78
2023-05-05T01:00:46.221Z,13.78
2023-05-05T01:03:15.160Z,13.71
2023-05-05T01:06:04.528Z,13.66
2023-05-05T01:08:39.427Z,13.56
2023-05-05T01:11:26.129Z,13.53
2023-05-05T01:14:17.055Z,13.53
2023-05-05T01:16:59.856Z,13.49
2023-05-05T01:20:01.105Z,13.40
2023-05-05T01:22:36.616Z,13.41
2023-05-05T01:25:15.370Z,13.52
2023-05-05T01:28:11.101Z,13.47
2023-05-05T01:30:55.749Z,13.46
2023-05-05T01:33:25.995Z,13.43
2023-05-05T01:35:55.880Z,13.43
2023-05-05T01:38:29.070Z,13.36
2023-05-05T01:41:03.590Z,13.33
2023-05-05T01:43:34.999Z,13.22
2023-05-05T01:46:02.371Z,13.24
2023-05-05T01:48:29.947Z,13.19
2023-05-05T01:50:57.610Z,13.13
2023-05-05T01:53:25.310Z,13.13
2023-05-05T01:55:52.716Z,13.12
2023-05-05T01:58:22.017Z,13.09
2023-05-05T02:00:50.088Z,13.09
2023-05-05T02:03:18.305Z,13.04
2023-05-05T02:05:49.180Z,13.01
2023-05-05T02:08:16.639Z,12.93
2023-05-05T02:10:44.762Z,12.97
2023-05-05T02:13:12.790Z,12.97
2023-05-05T02:15:40.443Z,12.93
2023-05-05T02:18:09.997Z,12.93
2023-05-05T02:20:39.906Z,12.92
2023-05-05T02:23:07.869Z,12.83
2023-05-05T02:25:41.865Z,12.79
2023-05-05T02:28:15.310Z,12.75
2023-05-05T02:30:43.018Z,12.73
2023-05-05T02:33:11.644Z,12.68
2023-05-05T02:35:40.841Z,12.65
2023-05-05T02:38:14.622Z,12.58
2023-05-05T02:40:43.346Z,12.59
2023-05-05T02:43:11.960Z,12.55
2023-05-05T02:45:38.493Z,12.53
2023-05-05T02:48:05.271Z,12.62
2023-05-05T02:50:32.107Z,12.60
2023-05-05T02:53:00.016Z,12.61
2023-05-05T02:55:43.941Z,12.62
2023-05-05T02:58:24.718Z,12.67
2023-05-05T03:01:01.815Z,12.60
2023-05-05T03:03:39.979Z,12.59
2023-05-05T03:06:18.923Z,12.56
2023-05-05T03:08:57.333Z,12.52
2023-05-05T03:11:32.917Z,12.53
2023-05-05T03:14:07.019Z,12.48
2023-05-05T03:16:35.762Z,12.42
2023-05-05T03:19:04.201Z,12.40
2023-05-05T03:21:32.475Z,12.36
2023-05-05T03:23:58.968Z,12.27
2023-05-05T03:26:25.391Z,12.26
2023-05-05T03:28:51.803Z,12.14
2023-05-05T03:31:18.729Z,12.15
2023-05-05T03:33:45.138Z,12.11
2023-05-05T03:36:11.727Z,12.03
2023-05-05T03:38:38.081Z,11.99
2023-05-05T03:41:04.400Z,11.91
2023-05-05T03:43:30.766Z,11.96
2023-05-05T03:45:57.202Z,11.95
2023-05-05T03:48:23.616Z,11.89
2023-05-05T03:50:50.559Z,11.81
2023-05-05T03:53:16.940Z,11.77
2023-05-05T03:55:43.357Z,11.76
2023-05-05T03:58:09.859Z,11.76
2023-05-05T04:00:36.280Z,11.73
2023-05-05T04:03:02.974Z,11.67
2023-05-05T04:05:29.421Z,11.65
2023-05-05T04:07:57.735Z,11.66
2023-05-05T04:10:24.038Z,11.64
2023-05-05T04:12:50.634Z,11.51
2023-05-05T04:15:16.979Z,11.59
2023-05-05T04:17:43.388Z,11.55
2023-05-05T04:20:10.184Z,11.52
2023-05-05T04:22:36.965Z,11.64
2023-05-05T04:25:03.434Z,11.68
2023-05-05T04:27:30.241Z,11.72
2023-05-05T04:29:56.963Z,11.70
2023-05-05T04:32:25.896Z,11.65
2023-05-05T04:34:52.513Z,11.75
2023-05-05T04:37:19.286Z,11.73
2023-05-05T04:39:46.543Z,11.76
2023-05-05T04:42:12.859Z,11.74
2023-05-05T04:44:39.420Z,11.79
2023-05-05T04:47:05.864Z,11.81
2023-05-05T04:49:32.367Z,11.83
2023-05-05T04:51:58.737Z,11.91
2023-05-05T04:54:25.165Z,11.95
2023-05-05T04:56:51.792Z,12.02
2023-05-05T04:59:18.178Z,12.13
2023-05-05T05:01:44.692Z,12.26
2023-05-05T05:04:11.344Z,12.41
2023-05-05T05:06:37.676Z,12.48
2023-05-05T05:09:04.085Z,12.56
2023-05-05T05:11:30.545Z,12.62
2023-05-05T05:13:56.853Z,12.68
2023-05-05T05:16:25.205Z,12.80
2023-05-05T05:18:51.594Z,12.89
2023-05-05T05:21:17.923Z,12.96
2023-05-05T05:23:44.206Z,13.04
2023-05-05T05:26:10.961Z,13.08
2023-05-05T05:28:37.339Z,13.14
2023-05-05T05:31:04.747Z,13.18
2023-05-05T05:33:31.061Z,13.19
2023-05-05T05:35:57.367Z,13.21
2023-05-05T05:38:23.747Z,13.20
2023-05-05T05:40:50.154Z,13.21
2023-05-05T05:43:16.460Z,13.24
2023-05-05T05:45:43.044Z,13.25
2023-05-05T05:48:09.485Z,13.23
2023-05-05T05:50:36.399Z,13.34
2023-05-05T05:53:03.010Z,13.49
2023-05-05T05:55:29.406Z,13.60
2023-05-05T05:57:55.866Z,13.73
2023-05-05T06:00:22.305Z,13.95
2023-05-05T06:02:48.666Z,14.11
2023-05-05T06:05:15.257Z,14.16
2023-05-05T06:07:41.616Z,14.21
2023-05-05T06:10:25.802Z,14.46
2023-05-05T06:12:53.502Z,14.54
2023-05-05T06:15:20.012Z,14.58
2023-05-05T06:17:46.470Z,14.70
2023-05-05T06:20:13.854Z,14.94
2023-05-05T06:22:40.316Z,15.06
2023-05-05T06:25:07.141Z,15.20
2023-05-05T06:27:33.433Z,15.21
2023-05-05T06:29:59.783Z,15.29
2023-05-05T06:32:26.209Z,15.31
2023-05-05T06:34:52.631Z,15.53
2023-05-05T06:37:19.018Z,15.71
2023-05-05T06:39:45.349Z,15.84
2023-05-05T06:42:11.645Z,15.71
2023-05-05T06:44:38.060Z,15.79
2023-05-05T06:47:04.569Z,15.86
2023-05-05T06:49:31.127Z,16.04
2023-05-05T06:51:57.437Z,16.42
2023-05-05T06:54:23.765Z,16.39
2023-05-05T06:56:50.185Z,16.43
2023-05-05T06:59:16.617Z,16.39
2023-05-05T07:01:43.061Z,16.43
2023-05-05T07:04:09.500Z,16.50
2023-05-05T07:06:36.090Z,16.78
2023-05-05T07:09:03.427Z,16.95
2023-05-05T07:11:29.944Z,17.16
2023-05-05T07:13:56.283Z,17.18
2023-05-05T07:16:22.664Z,17.48
2023-05-05T07:18:49.056Z,17.66
2023-05-05T07:21:15.453Z,17.96
2023-05-05T07:23:41.822Z,17.72
2023-05-05T07:26:08.475Z,17.84
2023-05-05T07:28:34.977Z,18.05
2023-05-05T07:31:01.271Z,18.31
2023-05-05T07:33:27.644Z,18.67
2023-05-05T07:35:54.033Z,18.73
2023-05-05T07:38:20.547Z,18.81
2023-05-05T07:40:46.848Z,18.69
2023-05-05T07:43:13.181Z,18.81
2023-05-05T07:45:39.602Z,19.03
2023-05-05T07:48:06.063Z,18.88
2023-05-05T07:50:32.604Z,18.90
2023-05-05T07:53:10.773Z,18.91
2023-05-05T07:55:41.289Z,19.17
2023-05-05T07:58:08.371Z,19.32
2023-05-05T08:00:34.860Z,19.48
2023-05-05T08:03:01.399Z,19.43
2023-05-05T08:05:27.998Z,19.78
2023-05-05T08:07:54.382Z,19.99
2023-05-05T08:10:22.187Z,20.34
2023-05-05T08:12:49.053Z,20.50
2023-05-05T08:15:15.423Z,20.57
2023-05-05T08:17:52.771Z,20.39
2023-05-05T08:20:20.471Z,20.36
2023-05-05T08:22:46.987Z,20.35
2023-05-05T08:25:14.082Z,20.36
2023-05-05T08:27:42.147Z,20.51
2023-05-05T08:30:09.394Z,20.78
2023-05-05T08:32:35.858Z,21.08
2023-05-05T08:35:05.819Z,20.95
2023-05-05T08:37:32.458Z,21.27
2023-05-05T08:39:58.873Z,21.20
2023-05-05T08:42:36.335Z,21.12
2023-05-05T08:45:05.330Z,21.74
2023-05-05T08:47:32.692Z,21.82
2023-05-05T08:49:59.210Z,21.73
2023-05-05T08:52:31.653Z,22.07
2023-05-05T08:55:05.907Z,22.28
2023-05-05T08:57:41.183Z,22.10
2023-05-05T09:00:10.064Z,22.37
2023-05-05T09:02:37.090Z,22.29
2023-05-05T09:05:05.348Z,22.53
2023-05-05T09:07:32.624Z,22.09
2023-05-05T09:10:00.382Z,21.91
2023-05-05T09:12:30.645Z,22.03
2023-05-05T09:14:59.271Z,22.54
2023-05-05T09:17:26.814Z,22.67
2023-05-05T09:20:10.698Z,22.69
2023-05-05T09:22:42.691Z,22.53
2023-05-05T09:25:15.021Z,22.76
2023-05-05T09:27:45.677Z,22.90
2023-05-05T09:30:16.267Z,23.18
2023-05-05T09:32:44.500Z,23.23
2023-05-05T09:35:10.959Z,23.24
2023-05-05T09:37:38.515Z,23.24
2023-05-05T09:40:05.994Z,23.41
2023-05-05T09:42:32.309Z,23.56
2023-05-05T09:44:59.895Z,23.98
2023-05-05T09:47:37.118Z,23.58
2023-05-05T09:50:04.228Z,23.60
2023-05-05T09:52:30.944Z,23.69
2023-05-05T09:54:57.485Z,23.68
2023-05-05T09:57:32.656Z,23.97
2023-05-05T10:00:04.986Z,23.74
2023-05-05T10:02:36.467Z,23.75
2023-05-05T10:05:14.244Z,24.16
2023-05-05T10:07:42.553Z,24.02
2023-05-05T10:10:16.670Z,24.15
2023-05-05T10:12:44.492Z,23.92
2023-05-05T10:15:11.937Z,24.37
2023-05-05T10:18:02.341Z,24.62
2023-05-05T10:20:33.340Z,24.45
2023-05-05T10:23:02.439Z,24.66
2023-05-05T10:25:31.327Z,24.94
2023-05-05T10:28:00.784Z,25.12
2023-05-05T10:30:33.929Z,25.26
2023-05-05T10:35:43.429Z,25.19
2023-05-05T10:38:12.545Z,25.33
2023-05-05T10:40:46.549Z,24.99
2023-05-05T10:43:14.554Z,25.14
2023-05-05T10:45:42.569Z,25.08
2023-05-05T10:48:14.468Z,24.97
2023-05-05T10:50:51.697Z,24.84
2023-05-05T10:53:20.757Z,24.45
2023-05-05T10:56:17.093Z,24.90
2023-05-05T10:58:59.159Z,25.24
2023-05-05T11:01:30.923Z,25.28
2023-05-05T11:04:26.853Z,25.44
2023-05-05T11:07:09.792Z,25.30
2023-05-05T11:09:55.096Z,25.36
2023-05-05T11:12:21.521Z,25.40
2023-05-05T11:14:47.838Z,25.79
2023-05-05T11:17:48.705Z,25.89
2023-05-05T11:20:16.889Z,25.69
2023-05-05T11:23:14.577Z,25.68
2023-05-05T11:25:44.451Z,25.92
2023-05-05T11:28:11.014Z,25.98
2023-05-05T11:30:59.035Z,25.85
2023-05-05T11:33:37.025Z,26.12
2023-05-05T11:36:06.791Z,26.15
2023-05-05T11:38:36.322Z,26.11
2023-05-05T11:41:13.496Z,26.17
2023-05-05T11:43:41.636Z,26.27
2023-05-05T11:46:12.447Z,26.60
2023-05-05T11:48:49.349Z,26.24
2023-05-05T11:51:17.168Z,26.25
2023-05-05T11:53:48.198Z,26.29
2023-05-05T11:56:20.423Z,26.38
2023-05-05T11:58:47.598Z,25.99
2023-05-05T12:01:14.623Z,26.33
2023-05-05T12:03:41.609Z,26.36
2023-05-05T12:06:08.797Z,26.33
2023-05-05T12:08:38.821Z,26.35
2023-05-05T12:11:08.148Z,26.78
2023-05-05T12:13:34.749Z,26.83
2023-05-05T12:16:16.717Z,26.72
2023-05-05T12:18:43.423Z,26.83
2023-05-05T12:21:19.257Z,26.44
2023-05-05T12:23:45.781Z,26.51
2023-05-05T12:26:29.609Z,26.61
2023-05-05T12:28:57.085Z,26.60
2023-05-05T12:31:23.527Z,26.41
2023-05-05T12:33:50.439Z,26.66
2023-05-05T12:36:17.048Z,26.33
2023-05-05T12:38:43.501Z,26.52
2023-05-05T12:41:10.002Z,26.56
2023-05-05T12:43:36.388Z,26.55
2023-05-05T12:46:10.438Z,26.48
2023-05-05T12:48:38.378Z,26.65
2023-05-05T12:51:11.721Z,26.99
2023-05-05T12:53:38.077Z,26.96
2023-05-05T12:56:04.650Z,26.43
2023-05-05T12:58:49.266Z,26.96
2023-05-05T13:01:15.631Z,26.47
2023-05-05T13:03:42.098Z,26.30
2023-05-05T13:06:22.039Z,26.71
2023-05-05T13:08:48.388Z,26.78
2023-05-05T13:11:14.742Z,26.83
2023-05-05T13:13:42.077Z,26.80
2023-05-05T13:16:08.528Z,26.81
2023-05-05T13:18:48.207Z,26.93
2023-05-05T13:21:14.653Z,26.95
2023-05-05T13:23:45.083Z,26.84
2023-05-05T13:26:13.403Z,26.66
2023-05-05T13:28:40.469Z,26.84
2023-05-05T13:31:07.531Z,26.74
2023-05-05T13:33:34.756Z,26.85
2023-05-05T13:36:02.175Z,26.88
2023-05-05T13:38:29.047Z,26.86
2023-05-05T13:40:55.409Z,26.64
2023-05-05T13:43:22.000Z,26.83
2023-05-05T13:45:48.450Z,26.86
2023-05-05T13:48:14.810Z,27.18
2023-05-05T13:50:41.127Z,26.79
2023-05-05T13:53:07.499Z,26.97
2023-05-05T13:55:33.889Z,27.12
2023-05-05T13:58:00.221Z,26.93
2023-05-05T14:00:27.731Z,26.84
2023-05-05T14:02:54.465Z,26.69
2023-05-05T14:05:21.350Z,26.65
2023-05-05T14:07:47.671Z,26.60
2023-05-05T14:10:14.332Z,26.26
2023-05-05T14:12:40.757Z,26.01
2023-05-05T14:15:08.131Z,25.70
2023-05-05T14:17:34.677Z,25.65
2023-05-05T14:20:01.049Z,25.27
2023-05-05T14:22:27.427Z,25.59
2023-05-05T14:24:53.940Z,25.46
2023-05-05T14:27:20.313Z,25.49
2023-05-05T14:29:46.663Z,25.42
2023-05-05T14:32:13.101Z,25.28
2023-05-05T14:34:39.489Z,25.12
2023-05-05T14:37:06.018Z,25.09
2023-05-05T14:39:32.390Z,24.95
2023-05-05T14:41:58.715Z,24.89
2023-05-05T14:44:25.266Z,24.81
2023-05-05T14:46:52.199Z,24.80
2023-05-05T14:49:18.582Z,24.91
2023-05-05T14:51:44.908Z,24.43
2023-05-05T14:54:24.221Z,24.36
2023-05-05T14:56:54.338Z,24.39
2023-05-05T14:59:20.754Z,24.39
2023-05-05T15:01:48.066Z,24.33
2023-05-05T15:04:14.406Z,24.08
2023-05-05T15:06:40.720Z,23.63
2023-05-05T15:09:07.127Z,23.29
2023-05-05T15:11:33.422Z,22.95
2023-05-05T15:13:59.794Z,22.67
2023-05-05T15:16:26.258Z,22.66
2023-05-05T15:18:52.704Z,22.44
2023-05-05T15:21:19.105Z,22.43
2023-05-05T15:23:45.496Z,22.16
2023-05-05T15:26:11.992Z,22.03
2023-05-05T15:28:38.368Z,21.83
2023-05-05T15:31:06.136Z,21.74
2023-05-05T15:33:33.427Z,21.46
2023-05-05T15:36:00.238Z,21.47
2023-05-05T15:38:28.897Z,21.42
2023-05-05T15:40:55.330Z,21.40
2023-05-05T15:43:21.650Z,21.30
2023-05-05T15:45:47.926Z,21.19
2023-05-05T15:48:14.293Z,21.26
2023-05-05T15:50:40.684Z,21.12
2023-05-05T15:53:06.990Z,21.12
2023-05-05T15:55:33.369Z,20.87
2023-05-05T15:57:59.721Z,20.99
2023-05-05T16:00:26.264Z,20.93
2023-05-05T16:02:52.670Z,20.78
2023-05-05T16:05:20.739Z,20.79
2023-05-05T16:07:49.078Z,20.79
2023-05-05T16:10:15.570Z,20.87
2023-05-05T16:12:41.909Z,20.75
2023-05-05T16:15:09.071Z,20.74
2023-05-05T16:17:35.792Z,20.73
2023-05-05T16:20:02.309Z,20.63
2023-05-05T16:22:28.684Z,20.58
2023-05-05T16:24:54.980Z,20.56
2023-05-05T16:27:21.670Z,20.50
2023-05-05T16:29:47.988Z,20.47
2023-05-05T16:32:14.328Z,20.49
2023-05-05T16:34:40.720Z,20.30
2023-05-05T16:37:07.060Z,20.27
2023-05-05T16:39:33.865Z,20.10
2023-05-05T16:42:00.261Z,19.99
2023-05-05T16:44:26.745Z,19.80
2023-05-05T16:46:53.010Z,19.76
2023-05-05T16:49:19.452Z,19.64
2023-05-05T16:51:45.847Z,19.56
2023-05-05T16:54:12.213Z,19.48
2023-05-05T16:56:38.547Z,19.44
2023-05-05T16:59:05.001Z,19.45
2023-05-05T17:01:31.943Z,19.51
2023-05-05T17:04:02.164Z,19.36
2023-05-05T17:06:34.362Z,19.35
2023-05-05T17:09:00.737Z,19.34
2023-05-05T17:11:27.173Z,19.25
2023-05-05T17:13:53.537Z,19.20
2023-05-05T17:16:20.064Z,19.22
2023-05-05T17:18:46.520Z,19.16
2023-05-05T17:21:12.805Z,19.29
2023-05-05T17:23:39.114Z,19.22
2023-05-05T17:26:05.441Z,19.20
2023-05-05T17:28:31.745Z,19.18
2023-05-05T17:30:59.834Z,19.19
2023-05-05T17:33:26.206Z,19.11
2023-05-05T17:35:52.831Z,19.10
2023-05-05T17:38:19.114Z,19.09
2023-05-05T17:40:45.438Z,19.12
2023-05-05T17:43:11.766Z,19.14
2023-05-05T17:45:38.200Z,19.08
2023-05-05T17:48:05.057Z,19.11
2023-05-05T17:50:31.515Z,19.13
2023-05-05T17:52:57.878Z,19.12
2023-05-05T17:55:24.221Z,19.03
2023-05-05T17:57:50.552Z,18.98
2023-05-05T18:00:18.182Z,18.94
2023-05-05T18:02:44.636Z,18.83
2023-05-05T18:05:11.338Z,18.93
2023-05-05T18:07:38.591Z,18.98
2023-05-05T18:10:06.952Z,19.02
2023-05-05T18:12:33.331Z,18.97
2023-05-05T18:15:00.415Z,18.88
2023-05-05T18:17:27.444Z,18.87
2023-05-05T18:19:53.781Z,18.93
2023-05-05T18:22:20.276Z,18.92
2023-05-05T18:24:46.881Z,18.87
2023-05-05T18:27:13.262Z,18.90
2023-05-05T18:29:39.731Z,18.85
2023-05-05T18:32:06.418Z,18.85
2023-05-05T18:34:32.981Z,18.78
2023-05-05T18:37:00.408Z,18.80
2023-05-05T18:39:26.902Z,18.75
2023-05-05T18:41:53.343Z,18.67
2023-05-05T18:44:20.107Z,18.64
2023-05-05T18:46:49.342Z,18.68
2023-05-05T18:49:16.224Z,18.67
2023-05-05T18:51:43.441Z,18.57
2023-05-05T18:54:09.833Z,18.56
2023-05-05T18:56:36.673Z,18.51
2023-05-05T18:59:03.011Z,18.46
2023-05-05T19:01:29.435Z,18.41
2023-05-05T19:03:55.847Z,18.35
2023-05-05T19:06:22.234Z,18.34
2023-05-05T19:08:48.645Z,18.26
2023-05-05T19:11:15.289Z,18.16
2023-05-05T19:13:42.053Z,18.17
2023-05-05T19:16:08.511Z,18.20
2023-05-05T19:18:34.918Z,18.19
2023-05-05T19:21:01.673Z,18.16
2023-05-05T19:23:28.027Z,18.14
2023-05-05T19:25:54.450Z,17.98
2023-05-05T19:28:21.337Z,18.03
2023-05-05T19:30:48.610Z,17.96
2023-05-05T19:33:15.767Z,17.97
2023-05-05T19:35:42.301Z,17.94
2023-05-05T19:38:10.172Z,17.91
2023-05-05T19:40:40.149Z,17.77
2023-05-05T19:43:07.290Z,17.81
2023-05-05T19:45:33.939Z,17.75
2023-05-05T19:48:03.326Z,17.73
2023-05-05T19:50:30.580Z,17.64
2023-05-05T19:52:57.795Z,17.58
2023-05-05T19:55:24.472Z,17.57
2023-05-05T19:57:50.811Z,17.58
2023-05-05T20:00:17.355Z,17.48
2023-05-05T20:02:45.136Z,17.54
2023-05-05T20:05:13.969Z,17.54
2023-05-05T20:07:41.846Z,17.50
2023-05-05T20:10:09.294Z,17.51
2023-05-05T20:12:36.012Z,17.42
2023-05-05T20:15:03.004Z,17.41
2023-05-05T20:17:29.399Z,17.33
2023-05-05T20:19:57.494Z,17.39
2023-05-05T20:22:26.288Z,17.35
2023-05-05T20:24:53.349Z,17.26
2023-05-05T20:27:20.814Z,17.24
2023-05-05T20:29:47.283Z,17.25
2023-05-05T20:32:13.759Z,17.18
2023-05-05T20:34:40.298Z,17.09
2023-05-05T20:37:06.690Z,17.11
2023-05-05T20:39:33.092Z,17.04
2023-05-05T20:41:59.407Z,17.08
2023-05-05T20:44:26.163Z,17.04
2023-05-05T20:46:52.574Z,16.96
2023-05-05T20:49:18.974Z,16.89
2023-05-05T20:51:45.284Z,16.86
2023-05-05T20:54:11.676Z,16.83
2023-05-05T20:56:38.116Z,16.83
2023-05-05T20:59:04.663Z,16.74
2023-05-05T21:01:31.155Z,16.75
2023-05-05T21:03:57.659Z,16.69
2023-05-05T21:06:24.233Z,16.65
2023-05-05T21:08:50.705Z,16.60
2023-05-05T21:11:17.074Z,16.69
2023-05-05T21:13:43.391Z,16.55
2023-05-05T21:16:11.242Z,16.46
2023-05-05T21:18:37.544Z,16.44
2023-05-05T21:21:04.081Z,16.50
2023-05-05T21:23:30.457Z,16.41
2023-05-05T21:25:56.860Z,16.37
2023-05-05T21:28:23.265Z,16.42
2023-05-05T21:31:10.413Z,16.42
2023-05-05T21:33:37.743Z,16.34
2023-05-05T21:36:04.817Z,16.41
2023-05-05T21:38:31.214Z,16.45
2023-05-05T21:40:58.535Z,16.41
2023-05-05T21:43:30.974Z,16.32
2023-05-05T21:46:04.970Z,16.24
2023-05-05T21:48:31.706Z,16.23
2023-05-05T21:50:58.052Z,16.18
2023-05-05T21:53:24.418Z,16.26
2023-05-05T21:55:50.902Z,16.19
2023-05-05T21:58:17.195Z,16.22
2023-05-05T22:00:43.604Z,16.25
2023-05-05T22:03:10.066Z,16.14
2023-05-05T22:05:36.536Z,16.12
2023-05-05T22:08:02.961Z,16.16
2023-05-05T22:10:29.257Z,16.05
2023-05-05T22:12:55.811Z,16.00
2023-05-05T22:15:25.362Z,15.88
2023-05-05T22:17:51.933Z,15.91
2023-05-05T22:20:18.267Z,15.83
2023-05-05T22:22:44.556Z,15.78
2023-05-05T22:25:11.192Z,15.63
2023-05-05T22:27:37.812Z,15.59
2023-05-05T22:30:04.915Z,15.54
2023-05-05T22:32:31.851Z,15.50
2023-05-05T22:34:58.238Z,15.47
2023-05-05T22:37:24.619Z,15.53
2023-05-05T22:39:50.893Z,15.41
2023-05-05T22:42:17.225Z,15.38
2023-05-05T22:44:43.588Z,15.26
2023-05-05T22:47:10.141Z,15.28
2023-05-05T22:49:36.599Z,15.23
2023-05-05T22:52:03.410Z,15.17
2023-05-05T22:54:29.732Z,15.18
2023-05-05T22:56:56.045Z,15.19
2023-05-05T22:59:22.373Z,15.19
2023-05-05T23:01:48.797Z,15.14
2023-05-05T23:04:15.309Z,15.23
2023-05-05T23:06:41.768Z,15.14
2023-05-05T23:09:08.092Z,15.11
2023-05-05T23:11:34.424Z,15.06
2023-05-05T23:14:00.840Z,15.06
2023-05-05T23:16:27.269Z,15.07
2023-05-05T23:18:53.710Z,15.08
2023-05-05T23:21:20.056Z,15.07
2023-05-05T23:23:46.391Z,15.04
2023-05-05T23:26:13.567Z,14.99
2023-05-05T23:28:39.918Z,14.96
2023-05-05T23:31:06.419Z,14.96
2023-05-05T23:33:32.881Z,14.92
2023-05-05T23:35:59.436Z,14.90
2023-05-05T23:38:25.807Z,14.93
2023-05-05T23:40:52.168Z,14.90
2023-05-05T23:43:18.503Z,14.86
2023-05-05T23:45:44.948Z,14.80
2023-05-05T23:48:11.924Z,14.76
2023-05-05T23:50:38.222Z,14.86
2023-05-05T23:53:04.630Z,14.73
2023-05-05T23:55:30.936Z,14.65
2023-05-05T23:57:57.300Z,14.59
